Time;durP1;ratioP1;P1;durP2;ratioP2;P2;SDS_P1;SDS_P2;PMS_P1;PMS_P2;Temp;Humidity;BMP_temperature;BMP_pressure;BME280_temperature;BME280_humidity;BME280_pressure;Samples;Min_cycle;Max_cycle;Signal;HPM_P1;HPM_P2
2022/06/22 00:00:16;;;;;;;5.97;5.35;;;11.70;99.90;;;;;;5070278;28;20040;-67
2022/06/22 00:02:43;;;;;;;6.88;6.22;;;11.60;99.90;;;;;;5085212;28;20040;-67
2022/06/22 00:05:20;;;;;;;12.15;7.13;;;11.60;99.90;;;;;;5084056;28;20405;-67
2022/06/22 00:07:52;;;;;;;8.95;6.30;;;11.50;99.90;;;;;;5083729;28;20127;-67
2022/06/22 00:10:45;;;;;;;12.25;8.43;;;11.50;99.90;;;;;;5085356;28;20123;-67
2022/06/22 00:13:26;;;;;;;6.47;5.57;;;11.50;99.90;;;;;;5031142;28;20406;-67
2022/06/22 00:15:58;;;;;;;10.13;7.35;;;11.30;99.90;;;;;;5084540;28;20557;-67
2022/06/22 00:18:24;;;;;;;6.82;6.15;;;11.30;99.90;;;;;;5082764;28;20094;-67
2022/06/22 00:20:52;;;;;;;11.27;7.13;;;11.30;99.90;;;;;;5082280;28;20050;-67
2022/06/22 00:23:33;;;;;;;10.35;6.15;;;11.20;99.90;;;;;;5071193;28;20037;-67
2022/06/22 00:26:24;;;;;;;10.70;7.75;;;11.20;99.90;;;;;;5082393;28;20048;-67
2022/06/22 00:29:04;;;;;;;4.90;4.40;;;11.10;99.90;;;;;;5083138;28;20048;-67
2022/06/22 00:31:30;;;;;;;6.10;5.60;;;11.10;99.90;;;;;;5084994;28;20405;-67
2022/06/22 00:34:10;;;;;;;5.38;4.75;;;11.00;99.90;;;;;;5081379;28;20032;-67
2022/06/22 00:37:08;;;;;;;4.10;3.70;;;11.00;99.90;;;;;;5084565;28;20172;-67
2022/06/22 00:39:41;;;;;;;5.60;5.10;;;10.90;99.90;;;;;;5069507;28;20068;-67
2022/06/22 00:42:15;;;;;;;6.32;5.18;;;10.90;99.90;;;;;;5084083;28;20036;-67
2022/06/22 00:44:46;;;;;;;11.40;7.00;;;10.80;99.90;;;;;;5080668;28;20088;-67
2022/06/22 00:47:33;;;;;;;11.50;9.38;;;10.70;99.90;;;;;;5086589;28;20052;-67
2022/06/22 00:50:17;;;;;;;16.98;7.50;;;10.70;99.90;;;;;;5085106;28;20043;-67
2022/06/22 00:53:05;;;;;;;5.50;4.72;;;10.70;99.90;;;;;;5067536;28;20048;-67
2022/06/22 00:55:39;;;;;;;5.53;4.97;;;10.60;99.90;;;;;;5085434;28;20040;-67
2022/06/22 00:58:15;;;;;;;6.30;4.28;;;10.50;99.90;;;;;;5083894;28;20127;-67
2022/06/22 01:00:43;;;;;;;;;;;10.40;99.90;;;;;;5086170;28;20030;-67
2022/06/22 01:03:20;;;;;;;5.90;4.82;;;10.40;99.90;;;;;;5066733;28;19915;-67
2022/06/22 01:05:56;;;;;;;4.57;3.78;;;10.40;99.90;;;;;;5069263;28;20123;-67
2022/06/22 01:08:35;;;;;;;4.90;3.10;;;10.40;99.90;;;;;;5082507;28;20036;-66
2022/06/22 01:14:28;;;;;;;8.88;6.10;;;10.40;99.90;;;;;;5073228;28;20474;-67
2022/06/22 01:16:57;;;;;;;6.40;5.70;;;10.30;99.90;;;;;;5064299;28;20177;-67
2022/06/22 01:19:41;;;;;;;6.38;5.63;;;10.30;99.90;;;;;;5067786;28;20047;-67
2022/06/22 01:22:25;;;;;;;5.78;5.30;;;10.30;99.90;;;;;;5066876;28;20031;-67
2022/06/22 01:24:53;;;;;;;10.80;8.90;;;10.20;99.90;;;;;;5086080;28;20089;-67
2022/06/22 01:27:41;;;;;;;9.40;8.50;;;10.30;99.90;;;;;;5064500;28;20040;-67
2022/06/22 01:30:30;;;;;;;10.70;8.80;;;10.40;99.90;;;;;;5071182;28;20083;-67
2022/06/22 01:32:56;;;;;;;10.85;8.40;;;10.50;99.90;;;;;;5083152;28;20062;-67
2022/06/22 01:35:30;;;;;;;9.20;7.90;;;10.60;99.90;;;;;;5066425;28;20032;-67
2022/06/22 01:37:56;;;;;;;10.13;7.78;;;10.70;99.90;;;;;;5065291;28;20118;-67
2022/06/22 01:40:32;;;;;;;4.78;3.30;;;10.70;99.90;;;;;;5082694;28;20146;-67
2022/06/22 01:43:05;;;;;;;12.15;5.43;;;10.60;99.90;;;;;;5068456;28;21674;-67
2022/06/22 01:45:50;;;;;;;4.50;4.10;;;10.40;99.90;;;;;;5085443;28;20413;-67
2022/06/22 01:48:35;;;;;;;6.40;3.78;;;10.30;99.90;;;;;;5083956;28;20093;-67
2022/06/22 01:51:24;;;;;;;3.97;3.63;;;10.20;99.90;;;;;;5083688;28;20044;-67
2022/06/22 01:54:15;;;;;;;6.60;4.35;;;10.00;99.90;;;;;;5083921;28;20111;-67
2022/06/22 01:56:49;;;;;;;5.20;4.80;;;10.00;99.90;;;;;;5080458;28;20131;-67
2022/06/22 01:59:32;;;;;;;6.30;5.70;;;10.00;99.90;;;;;;5083585;28;20028;-67
2022/06/22 02:02:06;;;;;;;7.60;5.32;;;10.00;99.90;;;;;;5084093;28;20043;-67
2022/06/22 02:04:42;;;;;;;5.25;4.63;;;10.00;99.90;;;;;;5080696;28;20078;-67
2022/06/22 02:10:09;;;;;;;5.32;3.70;;;9.90;99.90;;;;;;5069494;28;19955;-67
2022/06/22 02:12:40;;;;;;;4.90;4.50;;;9.80;99.90;;;;;;5066053;28;20044;-66
2022/06/22 02:15:18;;;;;;;5.40;4.90;;;9.70;99.90;;;;;;5082023;28;20123;-67
2022/06/22 02:17:45;;;;;;;5.03;4.47;;;9.70;99.90;;;;;;5066010;28;20144;-67
2022/06/22 02:20:27;;;;;;;8.13;6.00;;;9.60;99.90;;;;;;5067111;28;20098;-67
2022/06/22 02:23:00;;;;;;;8.18;5.82;;;9.70;99.90;;;;;;5082946;28;20047;-67
2022/06/22 02:25:27;;;;;;;7.38;6.43;;;9.50;99.90;;;;;;5067280;28;20412;-67
2022/06/22 02:27:53;;;;;;;6.95;5.70;;;9.60;99.90;;;;;;5066287;28;20167;-67
2022/06/22 02:30:19;;;;;;;5.82;5.22;;;9.60;99.90;;;;;;5081774;28;20158;-67
2022/06/22 02:32:45;;;;;;;5.35;4.75;;;9.50;99.90;;;;;;5083547;28;20040;-67
2022/06/22 02:35:13;;;;;;;5.22;4.72;;;9.40;99.90;;;;;;5059715;28;20044;-67
2022/06/22 02:38:05;;;;;;;6.13;5.60;;;9.40;99.90;;;;;;5084048;28;20056;-67
2022/06/22 02:44:29;;;;;;;12.15;8.52;;;9.30;99.90;;;;;;5081682;28;20393;-67
2022/06/22 02:46:16;;;;;;;7.70;6.85;;;9.30;99.90;;;;;;5078478;28;20127;-67
2022/06/22 02:48:46;;;;;;;7.18;5.40;;;9.20;99.90;;;;;;5062377;28;20044;-67
2022/06/22 02:51:20;;;;;;;13.20;5.97;;;9.10;99.90;;;;;;5078434;28;20055;-67
2022/06/22 02:53:47;;;;;;;40.50;7.22;;;9.00;99.90;;;;;;5080177;28;20477;-67
2022/06/22 02:56:17;;;;;;;8.40;7.65;;;8.90;99.90;;;;;;5068057;28;20080;-67
2022/06/22 02:58:44;;;;;;;11.82;8.90;;;8.90;99.90;;;;;;5079720;28;20040;-67
2022/06/22 03:01:16;;;;;;;10.00;8.00;;;8.90;99.90;;;;;;5081585;28;20055;-67
2022/06/22 03:03:46;;;;;;;8.68;7.78;;;8.80;99.90;;;;;;5080478;28;20071;-67
2022/06/22 03:06:14;;;;;;;7.32;6.63;;;8.80;99.90;;;;;;5066953;28;20036;-67
2022/06/22 03:08:40;;;;;;;20.10;9.27;;;8.90;99.90;;;;;;5083175;28;20078;-67
2022/06/22 03:11:08;;;;;;;75.43;10.10;;;8.90;99.90;;;;;;5066436;28;20072;-67
2022/06/22 03:13:42;;;;;;;114.43;10.85;;;8.90;99.90;;;;;;5067208;28;20135;-67
2022/06/22 03:16:31;;;;;;;111.30;10.60;;;9.00;99.90;;;;;;5077223;28;20044;-67
2022/06/22 03:19:00;;;;;;;105.97;10.98;;;9.00;99.90;;;;;;5081826;28;20163;-67
2022/06/22 03:21:27;;;;;;;73.75;10.10;;;9.10;99.90;;;;;;5079706;28;20047;-67
2022/06/22 03:24:21;;;;;;;68.15;10.57;;;9.10;99.90;;;;;;5083283;28;20040;-67
2022/06/22 03:27:02;;;;;;;102.45;11.10;;;9.10;99.90;;;;;;5059028;28;20062;-67
2022/06/22 03:29:39;;;;;;;30.75;8.98;;;9.20;99.90;;;;;;5062612;28;20040;-67
2022/06/22 03:32:08;;;;;;;51.78;10.15;;;9.20;99.90;;;;;;5066473;28;20044;-67
2022/06/22 03:34:40;;;;;;;36.15;9.98;;;9.40;99.90;;;;;;5069451;28;20431;-67
2022/06/22 03:37:11;;;;;;;13.63;9.75;;;9.50;99.90;;;;;;5063625;28;20043;-66
2022/06/22 03:39:41;;;;;;;28.27;11.13;;;9.60;99.90;;;;;;5062027;28;21394;-67
2022/06/22 03:42:14;;;;;;;35.90;11.18;;;9.70;99.90;;;;;;5046827;28;20028;-67
2022/06/22 03:44:50;;;;;;;19.15;10.70;;;9.70;99.90;;;;;;5079064;28;20101;-67
2022/06/22 03:47:36;;;;;;;75.78;11.48;;;9.80;99.90;;;;;;5080614;28;20039;-67
2022/06/22 03:50:26;;;;;;;45.47;10.43;;;9.80;99.90;;;;;;5080877;28;20123;-67
2022/06/22 03:53:01;;;;;;;26.55;9.23;;;9.80;99.90;;;;;;5070818;28;20795;-67
2022/06/22 03:55:35;;;;;;;20.02;9.38;;;9.80;99.90;;;;;;5065790;28;20490;-67
2022/06/22 03:58:03;;;;;;;28.10;9.88;;;9.70;99.90;;;;;;5062721;28;20051;-67
2022/06/22 04:00:31;;;;;;;8.93;8.23;;;9.60;99.90;;;;;;5079503;28;20040;-67
2022/06/22 04:02:57;;;;;;;9.75;8.85;;;9.70;99.90;;;;;;5077440;28;20490;-67
2022/06/22 04:05:27;;;;;;;14.40;12.98;;;9.80;99.90;;;;;;5081183;28;20044;-67
2022/06/22 04:07:54;;;;;;;16.67;12.50;;;9.90;99.90;;;;;;5065274;28;20627;-67
2022/06/22 04:10:45;;;;;;;11.93;10.75;;;10.50;99.90;;;;;;5080363;28;20490;-67
2022/06/22 04:13:19;;;;;;;12.90;11.10;;;11.50;99.90;;;;;;5080337;28;20049;-67
2022/06/22 04:15:54;;;;;;;12.70;9.88;;;11.80;99.90;;;;;;5080918;28;20509;-67
2022/06/22 04:18:36;;;;;;;15.48;10.90;;;11.90;99.90;;;;;;5067294;28;20044;-67
2022/06/22 04:21:05;;;;;;;17.30;11.52;;;12.00;99.90;;;;;;5081961;28;20111;-67
2022/06/22 04:23:38;;;;;;;13.93;11.50;;;12.00;99.90;;;;;;5079842;28;20044;-68
2022/06/22 04:26:14;;;;;;;11.85;10.20;;;12.10;99.90;;;;;;5082341;28;20058;-67
2022/06/22 04:28:44;;;;;;;11.57;10.30;;;12.10;99.90;;;;;;5079748;28;20058;-67
2022/06/22 04:31:21;;;;;;;11.90;9.52;;;12.40;99.90;;;;;;5066619;28;20633;-68
2022/06/22 04:33:53;;;;;;;15.05;10.40;;;12.70;99.90;;;;;;5081397;28;20052;-68
2022/06/22 04:36:51;;;;;;;11.10;9.38;;;13.40;99.90;;;;;;5081344;28;20135;-67
2022/06/22 04:39:26;;;;;;;9.25;7.72;;;14.60;99.90;;;;;;5061838;28;20078;-67
2022/06/22 04:41:53;;;;;;;8.18;6.85;;;16.20;99.90;;;;;;5066242;28;20047;-67
2022/06/22 04:44:25;;;;;;;8.85;7.18;;;16.80;99.90;;;;;;5085664;28;20044;-67
2022/06/22 04:46:55;;;;;;;9.02;6.57;;;18.10;99.90;;;;;;5087652;28;20634;-67
2022/06/22 04:49:26;;;;;;;7.30;6.03;;;19.30;99.90;;;;;;5066073;28;20544;-67
2022/06/22 04:52:21;;;;;;;7.97;5.63;;;20.50;99.90;;;;;;5066752;28;20525;-68
2022/06/22 04:54:51;;;;;;;6.93;5.40;;;21.30;99.90;;;;;;5081015;28;20046;-68
2022/06/22 04:57:24;;;;;;;6.13;5.45;;;21.80;99.90;;;;;;5083307;28;20111;-68
2022/06/22 04:59:51;;;;;;;8.80;5.65;;;22.20;99.90;;;;;;5085274;28;20031;-67
2022/06/22 05:02:20;;;;;;;8.70;5.63;;;22.90;99.90;;;;;;5082150;28;20486;-67
2022/06/22 05:04:51;;;;;;;7.35;5.35;;;23.40;99.90;;;;;;5064398;28;20120;-67
2022/06/22 05:07:38;;;;;;;5.30;4.80;;;24.00;99.90;;;;;;5086969;28;20139;-68
2022/06/22 05:10:38;;;;;;;8.82;5.38;;;24.70;99.90;;;;;;5066099;28;20040;-68
2022/06/22 05:13:20;;;;;;;8.88;4.30;;;25.50;99.90;;;;;;5068451;28;20071;-68
2022/06/22 05:15:49;;;;;;;7.78;4.13;;;26.30;99.90;;;;;;5065324;28;20048;-68
2022/06/22 05:18:21;;;;;;;6.68;4.68;;;26.40;99.90;;;;;;5084839;28;20040;-68
2022/06/22 05:21:14;;;;;;;10.55;6.07;;;26.60;99.90;;;;;;5083711;28;20100;-69
2022/06/22 05:23:45;;;;;;;6.47;5.03;;;26.00;99.90;;;;;;5069301;28;20044;-68
2022/06/22 05:26:11;;;;;;;6.25;5.10;;;25.00;99.90;;;;;;5083089;28;20051;-68
2022/06/22 05:28:50;;;;;;;6.60;4.65;;;23.60;99.90;;;;;;5068974;28;20047;-68
2022/06/22 05:31:22;;;;;;;8.63;5.95;;;22.80;99.90;;;;;;5079505;28;20058;-68
2022/06/22 05:33:51;;;;;;;7.22;4.70;;;22.10;99.90;;;;;;5082889;28;20068;-68
2022/06/22 05:36:21;;;;;;;6.47;5.05;;;21.50;99.90;;;;;;5075514;28;20138;-68
2022/06/22 05:38:50;;;;;;;9.02;5.72;;;21.00;99.90;;;;;;5082718;28;20047;-68
2022/06/22 05:41:20;;;;;;;8.65;5.80;;;20.70;99.90;;;;;;5043606;28;20051;-68
2022/06/22 05:43:46;;;;;;;7.40;5.63;;;20.60;99.90;;;;;;5060743;28;20968;-68
2022/06/22 05:46:13;;;;;;;7.03;5.78;;;20.60;99.90;;;;;;5084093;28;20039;-67
2022/06/22 05:48:43;;;;;;;9.43;6.35;;;20.50;99.90;;;;;;5068622;28;20097;-67
2022/06/22 05:51:21;;;;;;;7.43;5.55;;;20.50;99.90;;;;;;5077477;28;20032;-67
2022/06/22 05:53:52;;;;;;;5.32;4.75;;;20.60;99.90;;;;;;5080351;28;20040;-67
2022/06/22 05:56:39;;;;;;;11.32;6.15;;;20.70;99.90;;;;;;5064271;28;20059;-67
2022/06/22 05:59:19;;;;;;;9.85;6.35;;;20.60;99.90;;;;;;5066434;28;20050;-67
2022/06/22 06:02:10;;;;;;;12.23;5.70;;;20.50;99.90;;;;;;5080042;28;20062;-67
2022/06/22 06:04:59;;;;;;;6.90;6.20;;;20.50;99.90;;;;;;5052469;28;20044;-67
2022/06/22 06:07:34;;;;;;;7.63;6.75;;;20.30;99.90;;;;;;5061283;28;20705;-68
2022/06/22 06:10:06;;;;;;;13.07;6.20;;;20.20;99.90;;;;;;5066617;28;20043;-68
2022/06/22 06:12:39;;;;;;;10.00;6.70;;;20.40;99.90;;;;;;5081229;28;20032;-68
2022/06/22 06:15:06;;;;;;;8.13;6.35;;;20.60;99.90;;;;;;5082875;28;20501;-68
2022/06/22 06:17:43;;;;;;;7.55;6.85;;;20.70;99.90;;;;;;5063037;28;20040;-68
2022/06/22 06:20:23;;;;;;;8.38;6.03;;;20.70;99.90;;;;;;5081919;28;20473;-68
2022/06/22 06:22:52;;;;;;;12.82;6.93;;;20.60;99.90;;;;;;5062750;28;20145;-68
2022/06/22 06:28:20;;;;;;;9.02;6.68;;;20.60;99.90;;;;;;5076325;28;20044;-67
2022/06/22 06:30:49;;;;;;;8.75;5.93;;;20.60;99.90;;;;;;5045706;28;20037;-67
2022/06/22 06:33:34;;;;;;;6.32;4.82;;;20.80;99.90;;;;;;5079962;28;20036;-68
2022/06/22 06:36:28;;;;;;;5.53;3.30;;;20.80;99.90;;;;;;5078406;28;21220;-68
2022/06/22 06:39:02;;;;;;;7.43;3.78;;;20.70;99.90;;;;;;5082697;28;20074;-68
2022/06/22 06:41:47;;;;;;;9.40;3.92;;;20.70;99.90;;;;;;5066688;28;20109;-67
2022/06/22 06:44:20;;;;;;;5.28;4.03;;;20.70;99.90;;;;;;5059994;28;20040;-67
2022/06/22 06:46:57;;;;;;;6.70;4.57;;;20.90;99.90;;;;;;5064165;28;20059;-67
2022/06/22 06:49:44;;;;;;;7.88;4.45;;;21.00;99.90;;;;;;5063467;28;20044;-67
2022/06/22 06:52:29;;;;;;;7.95;3.67;;;21.20;99.90;;;;;;5046982;28;20052;-67
2022/06/22 06:55:14;;;;;;;3.58;2.13;;;21.20;99.90;;;;;;5063441;28;20083;-67
2022/06/22 06:58:05;;;;;;;;;;;21.30;99.90;;;;;;5066326;28;20525;-67
2022/06/22 07:00:31;;;;;;;3.28;1.85;;;21.40;99.90;;;;;;5076683;28;20346;-67
2022/06/22 07:02:58;;;;;;;3.90;1.90;;;21.50;99.90;;;;;;5059196;28;20036;-67
2022/06/22 07:05:27;;;;;;;4.78;2.20;;;21.70;99.90;;;;;;5061930;28;20051;-67
2022/06/22 07:08:17;;;;;;;5.72;1.52;;;21.70;99.90;;;;;;5060737;28;20046;-67
2022/06/22 07:10:51;;;;;;;4.40;1.30;;;21.70;99.90;;;;;;5059770;28;20044;-67
2022/06/22 07:13:33;;;;;;;4.15;2.33;;;21.70;99.90;;;;;;5069783;28;20048;-67
2022/06/22 07:16:09;;;;;;;3.13;1.30;;;21.80;99.90;;;;;;5060397;28;20048;-67
2022/06/22 07:18:41;;;;;;;5.03;1.80;;;21.90;99.90;;;;;;5065786;28;20601;-67
2022/06/22 07:21:23;;;;;;;4.43;1.70;;;22.10;99.90;;;;;;5064072;28;20435;-67
2022/06/22 07:24:18;;;;;;;5.28;2.28;;;22.10;99.90;;;;;;5079775;28;20604;-67
2022/06/22 07:27:06;;;;;;;4.20;2.10;;;22.30;99.90;;;;;;5061961;28;20082;-67
2022/06/22 07:29:43;;;;;;;7.07;2.13;;;22.40;99.90;;;;;;5060628;28;20048;-67
2022/06/22 07:32:15;;;;;;;3.97;1.90;;;22.40;99.90;;;;;;5065096;28;20129;-67
2022/06/22 07:35:04;;;;;;;3.78;1.55;;;22.50;99.90;;;;;;5062690;28;20106;-67
2022/06/22 07:37:39;;;;;;;5.75;1.83;;;22.50;99.90;;;;;;5051433;28;20060;-67
2022/06/22 07:40:22;;;;;;;3.45;1.58;;;22.50;99.90;;;;;;5064811;28;20420;-67
2022/06/22 07:42:50;;;;;;;6.00;2.22;;;22.60;99.90;;;;;;5061620;28;20502;-67
2022/06/22 07:45:19;;;;;;;4.22;1.38;;;22.70;99.90;;;;;;5077468;28;20047;-67
2022/06/22 07:48:17;;;;;;;4.35;1.65;;;22.70;99.90;;;;;;5077287;28;20453;-67
2022/06/22 07:50:51;;;;;;;5.72;1.70;;;22.70;99.90;;;;;;5079855;28;20044;-67
2022/06/22 07:53:22;;;;;;;4.00;2.10;;;22.70;99.90;;;;;;5080061;28;20083;-67
2022/06/22 07:55:57;;;;;;;6.10;1.67;;;22.60;99.90;;;;;;5062222;28;20055;-67
2022/06/22 07:58:42;;;;;;;4.25;1.73;;;22.70;99.90;;;;;;5081823;28;20044;-67
2022/06/22 08:01:11;;;;;;;4.47;1.60;;;22.70;99.90;;;;;;5062668;28;20039;-67
2022/06/22 08:03:49;;;;;;;5.97;2.58;;;22.70;99.90;;;;;;5061181;28;20082;-67
2022/06/22 08:06:20;;;;;;;6.95;1.52;;;22.70;99.90;;;;;;5078009;28;20378;-67
2022/06/22 08:08:53;;;;;;;2.83;1.73;;;22.90;99.90;;;;;;5078114;28;20037;-67
2022/06/22 08:11:34;;;;;;;3.58;1.48;;;22.90;99.90;;;;;;5061951;28;20045;-67
2022/06/22 08:14:22;;;;;;;5.78;1.48;;;22.90;99.90;;;;;;5062578;28;21531;-67
2022/06/22 08:16:55;;;;;;;3.00;1.27;;;23.10;99.90;;;;;;5085063;28;20036;-67
2022/06/22 08:19:21;;;;;;;5.03;0.70;;;23.10;99.10;;;;;;5083665;28;20048;-67
2022/06/22 08:21:51;;;;;;;2.13;0.60;;;23.30;97.70;;;;;;5066785;28;20457;-67
2022/06/22 08:24:19;;;;;;;2.17;0.95;;;23.30;96.10;;;;;;5051478;28;20050;-67
2022/06/22 08:26:47;;;;;;;5.05;1.40;;;23.50;95.80;;;;;;5082629;28;20036;-67
2022/06/22 08:29:18;;;;;;;2.15;0.98;;;23.50;96.70;;;;;;5064933;28;20036;-67
2022/06/22 08:31:50;;;;;;;3.42;1.27;;;23.50;96.50;;;;;;5066223;28;20036;-67
2022/06/22 08:34:23;;;;;;;2.88;1.45;;;23.30;96.10;;;;;;5065027;28;20043;-67
2022/06/22 08:36:54;;;;;;;3.78;1.48;;;22.90;97.20;;;;;;5070261;28;20044;-68
2022/06/22 08:39:32;;;;;;;4.28;1.27;;;23.00;97.20;;;;;;5081347;28;20474;-67
2022/06/22 08:42:21;;;;;;;2.85;1.00;;;23.30;98.10;;;;;;5081757;28;20040;-68
2022/06/22 08:45:28;;;;;;;2.40;0.93;;;23.10;97.20;;;;;;5085028;28;20036;-68
2022/06/22 08:48:12;;;;;;;;;;;23.20;98.20;;;;;;5082102;28;20139;-67
2022/06/22 08:51:00;;;;;;;3.38;1.35;;;23.20;97.70;;;;;;5064854;28;19920;-67
2022/06/22 08:53:47;;;;;;;1.25;0.80;;;23.30;96.20;;;;;;5083434;28;20038;-67
2022/06/22 08:56:19;;;;;;;3.92;1.10;;;23.40;97.40;;;;;;5068771;28;20062;-67
2022/06/22 08:59:09;;;;;;;2.90;1.20;;;23.50;97.60;;;;;;5084869;28;20036;-68
2022/06/22 09:02:01;;;;;;;2.78;0.90;;;23.40;97.90;;;;;;5080674;28;20037;-68
2022/06/22 09:05:01;;;;;;;3.05;1.10;;;23.40;96.30;;;;;;5079832;28;20513;-68
2022/06/22 09:07:48;;;;;;;3.45;1.10;;;23.60;96.60;;;;;;5047694;28;20102;-68
2022/06/22 09:10:23;;;;;;;3.60;0.77;;;23.70;95.50;;;;;;5064328;28;20176;-67
2022/06/22 09:13:15;;;;;;;4.30;1.30;;;23.70;95.20;;;;;;5065424;28;20052;-67
2022/06/22 09:16:06;;;;;;;3.80;1.58;;;23.70;96.20;;;;;;5064581;28;20736;-67
2022/06/22 09:18:40;;;;;;;3.13;1.05;;;23.50;95.80;;;;;;5062913;28;20067;-67
2022/06/22 09:21:26;;;;;;;4.30;1.20;;;23.60;96.40;;;;;;5081483;28;20039;-68
2022/06/22 09:24:10;;;;;;;4.43;1.55;;;23.60;96.20;;;;;;5064683;28;20119;-68
2022/06/22 09:26:47;;;;;;;5.50;1.27;;;23.40;95.00;;;;;;5062737;28;20051;-68
2022/06/22 09:29:44;;;;;;;4.43;1.30;;;23.20;96.30;;;;;;5080913;28;20042;-68
2022/06/22 09:32:24;;;;;;;7.10;2.17;;;23.20;96.20;;;;;;5081849;28;20064;-68
2022/06/22 09:35:13;;;;;;;2.85;1.60;;;23.30;96.80;;;;;;5083115;28;20043;-68
2022/06/22 09:37:57;;;;;;;4.43;1.95;;;23.50;97.00;;;;;;5063919;28;20040;-68
2022/06/22 09:40:47;;;;;;;5.22;2.53;;;23.50;97.90;;;;;;5081958;28;20040;-68
2022/06/22 09:43:25;;;;;;;8.18;2.75;;;23.80;99.40;;;;;;5067229;28;20056;-68
2022/06/22 09:45:57;;;;;;;5.13;1.77;;;24.00;98.00;;;;;;5081793;28;20047;-68
2022/06/22 09:48:35;;;;;;;3.83;1.77;;;24.00;97.30;;;;;;5079090;28;20517;-68
2022/06/22 09:51:26;;;;;;;5.90;2.78;;;23.90;97.50;;;;;;5062929;28;20643;-68
2022/06/22 09:56:19;;;;;;;6.57;1.70;;;23.80;96.50;;;;;;5084638;28;20430;-68
2022/06/22 09:57:19;;;;;;;4.78;1.77;;;23.80;96.70;;;;;;5083073;28;20044;-68
2022/06/22 09:59:59;;;;;;;5.60;2.10;;;23.80;97.10;;;;;;5081191;28;20044;-67
2022/06/22 10:02:30;;;;;;;5.80;2.30;;;24.10;97.20;;;;;;5068007;28;20486;-68
2022/06/22 10:05:16;;;;;;;5.90;2.13;;;24.00;95.20;;;;;;5059510;28;20390;-69
2022/06/22 10:07:53;;;;;;;5.53;2.30;;;24.10;96.20;;;;;;5062979;28;20044;-68
2022/06/22 10:10:37;;;;;;;5.28;2.65;;;24.10;96.20;;;;;;5066468;28;20036;-67
2022/06/22 10:13:22;;;;;;;7.97;2.53;;;23.70;95.70;;;;;;5079168;28;20482;-68
2022/06/22 10:16:21;;;;;;;4.65;2.72;;;23.80;97.20;;;;;;5063550;28;20040;-68
2022/06/22 10:19:01;;;;;;;5.07;2.20;;;23.80;96.40;;;;;;5067626;28;20071;-68
2022/06/22 10:21:38;;;;;;;5.97;3.50;;;23.70;98.00;;;;;;5065304;28;20052;-69
2022/06/22 10:24:19;;;;;;;3.53;1.80;;;23.80;96.90;;;;;;5065657;28;20435;-68
2022/06/22 10:27:12;;;;;;;8.13;2.08;;;23.80;96.50;;;;;;5061446;28;20044;-68
2022/06/22 10:29:43;;;;;;;7.57;2.35;;;23.80;96.90;;;;;;5065835;28;20051;-68
2022/06/22 10:32:46;;;;;;;4.25;1.70;;;23.60;95.90;;;;;;5062630;28;20040;-68
2022/06/22 10:35:40;;;;;;;6.45;2.20;;;23.50;95.40;;;;;;5078442;28;20047;-68
2022/06/22 10:38:40;;;;;;;7.15;1.90;;;23.60;95.50;;;;;;5064171;28;20047;-68
2022/06/22 10:47:44;;;;;;;4.80;1.80;;;23.90;95.80;;;;;;5080794;28;20052;-68
2022/06/22 10:50:13;;;;;;;3.22;1.65;;;24.10;95.10;;;;;;5061121;28;20051;-68
2022/06/22 10:53:16;;;;;;;7.32;1.38;;;24.10;95.40;;;;;;5080547;28;20051;-68
2022/06/22 10:55:59;;;;;;;5.70;2.15;;;24.10;94.60;;;;;;5081003;28;20080;-68
2022/06/22 10:58:56;;;;;;;3.88;1.63;;;24.20;94.50;;;;;;5076211;28;20132;-68
2022/06/22 11:02:03;;;;;;;5.38;2.63;;;24.40;94.90;;;;;;5080266;28;20044;-68
2022/06/22 11:04:34;;;;;;;3.88;1.38;;;24.20;93.70;;;;;;5065616;28;20462;-68
2022/06/22 11:07:40;;;;;;;3.20;1.45;;;24.10;95.00;;;;;;5063973;28;20550;-68
2022/06/22 11:10:21;;;;;;;4.25;1.27;;;24.10;95.00;;;;;;5063953;28;20508;-68
2022/06/22 11:13:22;;;;;;;4.13;1.20;;;24.30;95.00;;;;;;5064877;28;20059;-68
2022/06/22 11:16:18;;;;;;;2.75;1.10;;;24.10;94.30;;;;;;5013510;28;20047;-68
2022/06/22 11:19:07;;;;;;;3.80;1.20;;;24.00;92.70;;;;;;5080718;28;20048;-68
2022/06/22 11:21:54;;;;;;;4.68;1.88;;;23.90;93.30;;;;;;5081889;28;20137;-68
2022/06/22 11:25:02;;;;;;;4.18;1.20;;;23.80;94.00;;;;;;5063847;28;20044;-68
2022/06/22 11:30:57;;;;;;;3.92;1.23;;;23.90;95.90;;;;;;5080707;28;20044;-68
2022/06/22 11:33:44;;;;;;;5.28;1.73;;;24.10;95.20;;;;;;5064884;28;20647;-68
2022/06/22 11:36:36;;;;;;;3.00;1.05;;;23.90;94.20;;;;;;5080306;28;20099;-68
2022/06/22 11:39:11;;;;;;;4.15;1.38;;;23.90;93.90;;;;;;5080976;28;20039;-68
2022/06/22 11:42:04;;;;;;;2.90;1.30;;;23.80;93.80;;;;;;5042588;28;20044;-68
2022/06/22 11:45:49;;;;;;;3.42;1.40;;;23.90;93.80;;;;;;5081978;28;20044;-68
2022/06/22 11:47:42;;;;;;;5.78;1.00;;;24.00;94.00;;;;;;5064826;28;20051;-68
2022/06/22 11:50:25;;;;;;;4.18;1.23;;;23.90;96.10;;;;;;5080928;28;20036;-67
2022/06/22 11:53:09;;;;;;;3.63;1.10;;;24.00;94.30;;;;;;5063497;28;20040;-67
2022/06/22 11:55:43;;;;;;;2.42;0.88;;;24.00;93.60;;;;;;5079674;28;20045;-67
2022/06/22 11:58:25;;;;;;;2.05;0.70;;;24.10;94.70;;;;;;5064632;28;20382;-68
2022/06/22 12:01:29;;;;;;;2.88;1.10;;;24.10;93.70;;;;;;5065067;28;20123;-68
2022/06/22 12:04:24;;;;;;;3.50;1.10;;;24.10;92.90;;;;;;5038195;28;20049;-68
2022/06/22 12:07:01;;;;;;;4.35;1.30;;;24.10;94.40;;;;;;5077893;28;20071;-68
2022/06/22 12:09:39;;;;;;;3.85;1.15;;;24.00;93.10;;;;;;5081472;28;20489;-68
2022/06/22 12:12:10;;;;;;;3.72;1.20;;;24.10;93.10;;;;;;5062036;28;20068;-68
2022/06/22 12:17:43;;;;;;;3.10;1.38;;;23.90;93.60;;;;;;5068786;28;20040;-68
2022/06/22 12:20:32;;;;;;;2.45;1.55;;;24.10;94.00;;;;;;5081432;28;20553;-68
2022/06/22 12:23:11;;;;;;;2.47;1.05;;;24.10;93.00;;;;;;5061504;28;20028;-68
2022/06/22 12:25:58;;;;;;;3.65;1.40;;;24.10;93.90;;;;;;5078204;28;20047;-68
2022/06/22 12:28:48;;;;;;;3.17;1.05;;;23.90;93.20;;;;;;5082972;28;20043;-68
2022/06/22 12:31:17;;;;;;;2.70;1.15;;;24.00;93.70;;;;;;5081849;28;20144;-68
2022/06/22 12:34:29;;;;;;;6.43;1.58;;;23.90;92.60;;;;;;5061451;28;20036;-68
2022/06/22 12:36:59;;;;;;;3.85;1.20;;;24.00;93.00;;;;;;5051206;28;20379;-68
2022/06/22 12:39:34;;;;;;;4.18;1.40;;;24.10;95.00;;;;;;5079728;28;20060;-68
2022/06/22 12:42:10;;;;;;;;;;;24.10;94.50;;;;;;5059029;28;20368;-68
2022/06/22 12:44:47;;;;;;;2.83;1.23;;;23.90;93.40;;;;;;5078305;28;20362;-69
2022/06/22 12:47:44;;;;;;;4.15;1.65;;;23.80;93.60;;;;;;5061928;28;20549;-68
2022/06/22 12:50:31;;;;;;;2.97;1.27;;;23.60;92.60;;;;;;5078715;28;20032;-67
2022/06/22 12:53:04;;;;;;;5.03;2.00;;;23.80;94.80;;;;;;5061420;28;20514;-67
2022/06/22 12:55:39;;;;;;;5.55;1.83;;;23.80;94.40;;;;;;5048570;28;20043;-67
2022/06/22 12:58:08;;;;;;;5.13;1.42;;;23.80;93.50;;;;;;5052620;28;20051;-67
2022/06/22 13:00:34;;;;;;;2.28;1.20;;;23.90;94.50;;;;;;5074011;28;20036;-67
2022/06/22 13:03:01;;;;;;;4.78;1.42;;;24.00;94.70;;;;;;5075630;28;20040;-67
2022/06/22 13:05:34;;;;;;;3.88;1.60;;;24.00;94.90;;;;;;5078103;28;20398;-67
2022/06/22 13:08:04;;;;;;;3.33;1.63;;;24.00;95.50;;;;;;5057857;28;20403;-67
2022/06/22 13:10:46;;;;;;;2.85;1.23;;;24.10;95.30;;;;;;5080430;28;20055;-67
2022/06/22 13:13:35;;;;;;;4.38;1.73;;;24.10;94.70;;;;;;5074898;28;20067;-67
2022/06/22 13:16:10;;;;;;;5.43;1.27;;;24.00;93.90;;;;;;5073110;28;20083;-67
2022/06/22 13:18:44;;;;;;;;;;;23.80;95.10;;;;;;5058359;28;20052;-67
2022/06/22 13:21:14;;;;;;;4.78;1.52;;;23.90;96.00;;;;;;5055980;28;20378;-67
2022/06/22 13:24:11;;;;;;;1.77;1.15;;;24.00;95.60;;;;;;5074203;28;20042;-67
2022/06/22 13:26:58;;;;;;;3.53;1.65;;;24.10;94.50;;;;;;5074638;28;20048;-67
2022/06/22 13:29:53;;;;;;;2.15;0.98;;;24.10;93.60;;;;;;5087400;28;20133;-67
2022/06/22 13:32:21;;;;;;;7.00;1.33;;;24.30;93.90;;;;;;5063339;28;20039;-67
2022/06/22 13:34:52;;;;;;;2.97;1.00;;;24.30;93.00;;;;;;5085969;28;20449;-67
2022/06/22 13:37:36;;;;;;;6.78;1.10;;;24.30;94.60;;;;;;5063463;28;20048;-67
2022/06/22 13:40:26;;;;;;;3.97;1.60;;;24.30;94.60;;;;;;5066386;28;20037;-67
2022/06/22 13:43:03;;;;;;;2.97;1.40;;;24.40;94.10;;;;;;5080118;28;20071;-67
2022/06/22 13:45:54;;;;;;;2.25;1.20;;;24.40;95.00;;;;;;5064185;28;20173;-67
2022/06/22 13:48:36;;;;;;;6.00;1.50;;;24.40;95.00;;;;;;5051136;28;20059;-67
2022/06/22 13:51:32;;;;;;;4.65;1.05;;;24.40;94.20;;;;;;5063875;28;20051;-67
2022/06/22 13:54:15;;;;;;;4.55;1.48;;;24.30;94.50;;;;;;5083557;28;20051;-67
2022/06/22 13:56:41;;;;;;;3.38;1.25;;;24.50;94.30;;;;;;5082312;28;20487;-67
2022/06/22 13:59:39;;;;;;;3.47;1.73;;;24.50;94.40;;;;;;5061693;28;20120;-67
2022/06/22 14:02:24;;;;;;;3.30;1.30;;;24.40;94.50;;;;;;5061544;28;20150;-67
2022/06/22 14:05:05;;;;;;;3.40;1.20;;;24.40;95.10;;;;;;5083335;28;20500;-67
2022/06/22 14:07:40;;;;;;;3.20;1.45;;;24.40;94.50;;;;;;5083740;28;20436;-67
2022/06/22 14:10:09;;;;;;;4.85;1.60;;;24.40;93.90;;;;;;5062541;28;20113;-67
2022/06/22 14:12:44;;;;;;;5.22;1.92;;;24.30;94.10;;;;;;5080656;28;20044;-68